sensor_id;sensor_type;location;lat;lon;timestamp;temperature;humidity
49385;DHT22;36795;45.028;38.968;2022-09-09T00:02:22;17.10;60.00
49385;DHT22;36795;45.028;38.968;2022-09-09T00:06:08;17.10;60.10
49385;DHT22;36795;45.028;38.968;2022-09-09T00:11:47;17.00;60.00
49385;DHT22;36795;45.028;38.968;2022-09-09T00:14:59;17.00;60.10
49385;DHT22;36795;45.028;38.968;2022-09-09T00:21:32;16.70;60.70
49385;DHT22;36795;45.028;38.968;2022-09-09T00:27:46;16.60;61.40
49385;DHT22;36795;45.028;38.968;2022-09-09T00:30:35;16.60;61.50
49385;DHT22;36795;45.028;38.968;2022-09-09T00:33:24;16.60;61.50
49385;DHT22;36795;45.028;38.968;2022-09-09T00:36:18;16.60;61.50
49385;DHT22;36795;45.028;38.968;2022-09-09T00:39:05;16.70;61.60
49385;DHT22;36795;45.028;38.968;2022-09-09T00:41:59;16.60;61.70
49385;DHT22;36795;45.028;38.968;2022-09-09T00:44:56;16.60;62.00
49385;DHT22;36795;45.028;38.968;2022-09-09T00:47:49;16.60;62.10
49385;DHT22;36795;45.028;38.968;2022-09-09T00:53:38;16.60;62.50
49385;DHT22;36795;45.028;38.968;2022-09-09T00:56:38;16.50;62.40
49385;DHT22;36795;45.028;38.968;2022-09-09T00:59:45;16.50;62.20
49385;DHT22;36795;45.028;38.968;2022-09-09T01:02:38;16.50;62.30
49385;DHT22;36795;45.028;38.968;2022-09-09T01:09:10;16.30;62.30
49385;DHT22;36795;45.028;38.968;2022-09-09T01:12:09;16.10;62.60
49385;DHT22;36795;45.028;38.968;2022-09-09T01:15:21;16.00;63.00
49385;DHT22;36795;45.028;38.968;2022-09-09T01:18:13;16.00;63.10
49385;DHT22;36795;45.028;38.968;2022-09-09T01:24:05;16.00;63.10
49385;DHT22;36795;45.028;38.968;2022-09-09T01:27:00;16.00;63.20
49385;DHT22;36795;45.028;38.968;2022-09-09T01:29:48;16.10;63.20
49385;DHT22;36795;45.028;38.968;2022-09-09T01:32:50;16.20;63.00
49385;DHT22;36795;45.028;38.968;2022-09-09T01:35:44;16.30;62.90
49385;DHT22;36795;45.028;38.968;2022-09-09T01:38:33;16.30;62.80
49385;DHT22;36795;45.028;38.968;2022-09-09T01:41:20;16.20;62.90
49385;DHT22;36795;45.028;38.968;2022-09-09T01:44:08;16.10;63.10
49385;DHT22;36795;45.028;38.968;2022-09-09T01:46:55;16.10;63.20
49385;DHT22;36795;45.028;38.968;2022-09-09T01:49:41;16.10;63.30
49385;DHT22;36795;45.028;38.968;2022-09-09T01:52:28;16.00;63.60
49385;DHT22;36795;45.028;38.968;2022-09-09T01:55:14;16.00;63.80
49385;DHT22;36795;45.028;38.968;2022-09-09T01:58:20;16.00;64.10
49385;DHT22;36795;45.028;38.968;2022-09-09T02:01:24;16.00;64.40
49385;DHT22;36795;45.028;38.968;2022-09-09T02:04:36;16.00;64.40
49385;DHT22;36795;45.028;38.968;2022-09-09T02:07:50;15.90;64.60
49385;DHT22;36795;45.028;38.968;2022-09-09T02:10:58;15.90;64.90
49385;DHT22;36795;45.028;38.968;2022-09-09T02:13:49;15.80;65.10
49385;DHT22;36795;45.028;38.968;2022-09-09T02:16:49;15.80;65.30
49385;DHT22;36795;45.028;38.968;2022-09-09T02:19:42;15.80;65.40
49385;DHT22;36795;45.028;38.968;2022-09-09T02:22:32;15.70;65.40
49385;DHT22;36795;45.028;38.968;2022-09-09T02:25:23;15.70;65.60
49385;DHT22;36795;45.028;38.968;2022-09-09T02:28:12;15.70;65.80
49385;DHT22;36795;45.028;38.968;2022-09-09T02:31:01;15.70;66.00
49385;DHT22;36795;45.028;38.968;2022-09-09T02:33:54;15.70;66.20
49385;DHT22;36795;45.028;38.968;2022-09-09T02:36:43;15.60;66.40
49385;DHT22;36795;45.028;38.968;2022-09-09T02:39:31;15.70;66.50
49385;DHT22;36795;45.028;38.968;2022-09-09T02:42:17;15.70;66.40
49385;DHT22;36795;45.028;38.968;2022-09-09T02:45:06;15.70;66.50
49385;DHT22;36795;45.028;38.968;2022-09-09T02:48:25;15.70;66.60
49385;DHT22;36795;45.028;38.968;2022-09-09T02:51:44;15.70;66.10
49385;DHT22;36795;45.028;38.968;2022-09-09T02:54:34;15.80;65.90
49385;DHT22;36795;45.028;38.968;2022-09-09T02:57:26;15.70;65.80
49385;DHT22;36795;45.028;38.968;2022-09-09T03:00:14;15.80;65.50
49385;DHT22;36795;45.028;38.968;2022-09-09T03:03:03;15.80;65.10
49385;DHT22;36795;45.028;38.968;2022-09-09T03:05:51;15.80;64.90
49385;DHT22;36795;45.028;38.968;2022-09-09T03:08:38;15.80;64.80
49385;DHT22;36795;45.028;38.968;2022-09-09T03:11:24;15.80;64.70
49385;DHT22;36795;45.028;38.968;2022-09-09T03:14:11;15.80;64.60
49385;DHT22;36795;45.028;38.968;2022-09-09T03:16:57;15.80;64.80
49385;DHT22;36795;45.028;38.968;2022-09-09T03:19:47;15.80;64.80
49385;DHT22;36795;45.028;38.968;2022-09-09T03:22:35;15.70;65.00
49385;DHT22;36795;45.028;38.968;2022-09-09T03:25:22;15.70;65.20
49385;DHT22;36795;45.028;38.968;2022-09-09T03:28:11;15.70;65.30
49385;DHT22;36795;45.028;38.968;2022-09-09T03:31:02;15.70;65.20
49385;DHT22;36795;45.028;38.968;2022-09-09T03:33:50;15.70;65.60
49385;DHT22;36795;45.028;38.968;2022-09-09T03:36:37;15.60;65.10
49385;DHT22;36795;45.028;38.968;2022-09-09T03:39:23;15.60;65.20
49385;DHT22;36795;45.028;38.968;2022-09-09T03:42:13;15.70;65.00
49385;DHT22;36795;45.028;38.968;2022-09-09T03:44:59;15.70;65.00
49385;DHT22;36795;45.028;38.968;2022-09-09T03:47:46;15.80;64.90
49385;DHT22;36795;45.028;38.968;2022-09-09T03:50:33;15.90;64.70
49385;DHT22;36795;45.028;38.968;2022-09-09T03:53:22;16.00;64.40
49385;DHT22;36795;45.028;38.968;2022-09-09T03:56:08;16.00;64.20
49385;DHT22;36795;45.028;38.968;2022-09-09T03:58:55;16.10;64.20
49385;DHT22;36795;45.028;38.968;2022-09-09T04:01:41;16.20;63.90
49385;DHT22;36795;45.028;38.968;2022-09-09T04:04:29;16.20;63.80
49385;DHT22;36795;45.028;38.968;2022-09-09T04:07:15;16.20;63.60
49385;DHT22;36795;45.028;38.968;2022-09-09T04:10:02;16.20;63.60
49385;DHT22;36795;45.028;38.968;2022-09-09T04:12:49;16.30;63.40
49385;DHT22;36795;45.028;38.968;2022-09-09T04:15:35;16.40;62.90
49385;DHT22;36795;45.028;38.968;2022-09-09T04:18:22;16.40;62.60
49385;DHT22;36795;45.028;38.968;2022-09-09T04:21:10;16.50;62.60
49385;DHT22;36795;45.028;38.968;2022-09-09T04:23:57;16.50;63.30
49385;DHT22;36795;45.028;38.968;2022-09-09T04:26:44;16.60;62.70
49385;DHT22;36795;45.028;38.968;2022-09-09T04:29:32;16.60;62.90
49385;DHT22;36795;45.028;38.968;2022-09-09T04:32:18;16.60;63.10
49385;DHT22;36795;45.028;38.968;2022-09-09T04:35:04;16.70;63.30
49385;DHT22;36795;45.028;38.968;2022-09-09T04:37:52;16.90;63.40
49385;DHT22;36795;45.028;38.968;2022-09-09T04:40:38;16.90;63.40
49385;DHT22;36795;45.028;38.968;2022-09-09T04:43:28;17.10;63.50
49385;DHT22;36795;45.028;38.968;2022-09-09T04:46:16;17.20;63.40
49385;DHT22;36795;45.028;38.968;2022-09-09T04:49:06;17.30;63.30
49385;DHT22;36795;45.028;38.968;2022-09-09T04:51:52;17.30;63.10
49385;DHT22;36795;45.028;38.968;2022-09-09T04:54:39;17.40;63.10
49385;DHT22;36795;45.028;38.968;2022-09-09T04:57:26;17.50;63.00
49385;DHT22;36795;45.028;38.968;2022-09-09T05:00:13;17.50;62.90
49385;DHT22;36795;45.028;38.968;2022-09-09T05:03:03;17.50;63.00
49385;DHT22;36795;45.028;38.968;2022-09-09T05:05:50;17.60;63.00
49385;DHT22;36795;45.028;38.968;2022-09-09T05:08:40;17.70;63.10
49385;DHT22;36795;45.028;38.968;2022-09-09T05:11:29;17.90;62.80
49385;DHT22;36795;45.028;38.968;2022-09-09T05:14:17;18.10;62.50
49385;DHT22;36795;45.028;38.968;2022-09-09T05:17:03;18.30;62.00
49385;DHT22;36795;45.028;38.968;2022-09-09T05:19:51;18.50;61.30
49385;DHT22;36795;45.028;38.968;2022-09-09T05:22:38;18.60;60.80
49385;DHT22;36795;45.028;38.968;2022-09-09T05:25:24;18.70;60.00
49385;DHT22;36795;45.028;38.968;2022-09-09T05:28:12;18.80;59.20
49385;DHT22;36795;45.028;38.968;2022-09-09T05:31:03;18.80;58.60
49385;DHT22;36795;45.028;38.968;2022-09-09T05:33:54;18.80;58.20
49385;DHT22;36795;45.028;38.968;2022-09-09T05:36:44;18.90;57.60
49385;DHT22;36795;45.028;38.968;2022-09-09T05:39:31;19.00;57.20
49385;DHT22;36795;45.028;38.968;2022-09-09T05:42:18;19.20;56.90
49385;DHT22;36795;45.028;38.968;2022-09-09T05:45:09;19.30;56.40
49385;DHT22;36795;45.028;38.968;2022-09-09T05:47:55;19.50;55.80
49385;DHT22;36795;45.028;38.968;2022-09-09T05:50:42;19.70;55.20
49385;DHT22;36795;45.028;38.968;2022-09-09T05:53:30;19.80;54.70
49385;DHT22;36795;45.028;38.968;2022-09-09T05:56:28;19.90;54.10
49385;DHT22;36795;45.028;38.968;2022-09-09T05:59:14;20.00;53.70
49385;DHT22;36795;45.028;38.968;2022-09-09T06:02:01;20.20;53.10
49385;DHT22;36795;45.028;38.968;2022-09-09T06:04:48;20.30;52.80
49385;DHT22;36795;45.028;38.968;2022-09-09T06:07:34;20.40;52.40
49385;DHT22;36795;45.028;38.968;2022-09-09T06:10:22;20.50;51.90
49385;DHT22;36795;45.028;38.968;2022-09-09T06:13:12;20.60;51.30
49385;DHT22;36795;45.028;38.968;2022-09-09T06:16:00;20.70;50.80
49385;DHT22;36795;45.028;38.968;2022-09-09T06:18:46;20.80;50.30
49385;DHT22;36795;45.028;38.968;2022-09-09T06:21:36;20.80;49.90
49385;DHT22;36795;45.028;38.968;2022-09-09T06:24:22;21.00;49.50
49385;DHT22;36795;45.028;38.968;2022-09-09T06:27:09;21.00;48.70
49385;DHT22;36795;45.028;38.968;2022-09-09T06:29:55;21.00;48.50
49385;DHT22;36795;45.028;38.968;2022-09-09T06:32:42;21.10;48.30
49385;DHT22;36795;45.028;38.968;2022-09-09T06:35:28;21.30;47.70
49385;DHT22;36795;45.028;38.968;2022-09-09T06:38:15;21.30;46.40
49385;DHT22;36795;45.028;38.968;2022-09-09T06:41:05;21.40;45.30
49385;DHT22;36795;45.028;38.968;2022-09-09T06:43:56;21.40;45.10
49385;DHT22;36795;45.028;38.968;2022-09-09T06:46:46;21.40;44.70
49385;DHT22;36795;45.028;38.968;2022-09-09T06:49:36;21.40;44.70
49385;DHT22;36795;45.028;38.968;2022-09-09T06:52:23;21.60;44.30
49385;DHT22;36795;45.028;38.968;2022-09-09T06:55:11;21.70;43.30
49385;DHT22;36795;45.028;38.968;2022-09-09T06:57:58;21.80;42.70
49385;DHT22;36795;45.028;38.968;2022-09-09T07:00:45;21.90;42.90
49385;DHT22;36795;45.028;38.968;2022-09-09T07:03:32;21.90;43.00
49385;DHT22;36795;45.028;38.968;2022-09-09T07:06:25;22.00;43.10
49385;DHT22;36795;45.028;38.968;2022-09-09T07:09:15;22.10;42.80
49385;DHT22;36795;45.028;38.968;2022-09-09T07:12:03;22.20;42.60
49385;DHT22;36795;45.028;38.968;2022-09-09T07:14:52;22.40;42.30
49385;DHT22;36795;45.028;38.968;2022-09-09T07:17:38;22.40;42.20
49385;DHT22;36795;45.028;38.968;2022-09-09T07:20:24;22.50;41.90
49385;DHT22;36795;45.028;38.968;2022-09-09T07:23:11;22.60;41.50
49385;DHT22;36795;45.028;38.968;2022-09-09T07:25:59;22.70;41.60
49385;DHT22;36795;45.028;38.968;2022-09-09T07:28:46;22.80;41.40
49385;DHT22;36795;45.028;38.968;2022-09-09T07:31:35;22.90;41.20
49385;DHT22;36795;45.028;38.968;2022-09-09T07:34:22;22.90;40.90
49385;DHT22;36795;45.028;38.968;2022-09-09T07:37:09;23.10;40.70
49385;DHT22;36795;45.028;38.968;2022-09-09T07:39:59;23.30;40.40
49385;DHT22;36795;45.028;38.968;2022-09-09T07:42:46;23.60;40.20
49385;DHT22;36795;45.028;38.968;2022-09-09T07:45:33;23.80;39.70
49385;DHT22;36795;45.028;38.968;2022-09-09T07:48:19;24.10;39.40
49385;DHT22;36795;45.028;38.968;2022-09-09T07:51:12;24.40;39.30
49385;DHT22;36795;45.028;38.968;2022-09-09T07:54:08;24.80;38.80
49385;DHT22;36795;45.028;38.968;2022-09-09T07:56:55;25.00;37.90
49385;DHT22;36795;45.028;38.968;2022-09-09T07:59:42;25.10;37.10
49385;DHT22;36795;45.028;38.968;2022-09-09T08:02:32;25.60;36.80
49385;DHT22;36795;45.028;38.968;2022-09-09T08:05:28;27.00;35.50
49385;DHT22;36795;45.028;38.968;2022-09-09T08:08:14;29.20;33.10
49385;DHT22;36795;45.028;38.968;2022-09-09T08:11:13;31.00;31.30
49385;DHT22;36795;45.028;38.968;2022-09-09T08:14:03;32.30;29.40
49385;DHT22;36795;45.028;38.968;2022-09-09T08:16:50;32.60;28.90
49385;DHT22;36795;45.028;38.968;2022-09-09T08:19:36;32.90;28.40
49385;DHT22;36795;45.028;38.968;2022-09-09T08:22:23;33.10;28.30
49385;DHT22;36795;45.028;38.968;2022-09-09T08:25:09;32.70;28.80
49385;DHT22;36795;45.028;38.968;2022-09-09T08:27:56;32.60;28.40
49385;DHT22;36795;45.028;38.968;2022-09-09T08:30:42;33.00;28.40
49385;DHT22;36795;45.028;38.968;2022-09-09T08:33:29;33.50;28.10
49385;DHT22;36795;45.028;38.968;2022-09-09T08:36:18;34.90;27.30
49385;DHT22;36795;45.028;38.968;2022-09-09T08:39:06;36.00;26.10
49385;DHT22;36795;45.028;38.968;2022-09-09T08:42:30;37.30;25.50
49385;DHT22;36795;45.028;38.968;2022-09-09T08:45:53;38.00;24.90
49385;DHT22;36795;45.028;38.968;2022-09-09T08:48:56;38.50;24.60
49385;DHT22;36795;45.028;38.968;2022-09-09T08:51:44;39.20;23.80
49385;DHT22;36795;45.028;38.968;2022-09-09T08:54:34;40.00;23.80
49385;DHT22;36795;45.028;38.968;2022-09-09T08:57:26;41.10;23.00
49385;DHT22;36795;45.028;38.968;2022-09-09T09:00:14;41.50;22.90
49385;DHT22;36795;45.028;38.968;2022-09-09T09:11:38;40.00;23.30
49385;DHT22;36795;45.028;38.968;2022-09-09T09:14:25;40.10;23.50
49385;DHT22;36795;45.028;38.968;2022-09-09T09:17:17;40.60;23.50
49385;DHT22;36795;45.028;38.968;2022-09-09T09:20:11;40.90;23.40
49385;DHT22;36795;45.028;38.968;2022-09-09T09:23:01;40.50;23.40
49385;DHT22;36795;45.028;38.968;2022-09-09T09:25:48;40.30;23.40
49385;DHT22;36795;45.028;38.968;2022-09-09T09:28:36;40.20;23.10
49385;DHT22;36795;45.028;38.968;2022-09-09T09:31:24;39.90;23.00
49385;DHT22;36795;45.028;38.968;2022-09-09T09:34:12;39.70;22.90
49385;DHT22;36795;45.028;38.968;2022-09-09T09:37:02;39.70;22.70
49385;DHT22;36795;45.028;38.968;2022-09-09T09:40:09;39.50;22.90
49385;DHT22;36795;45.028;38.968;2022-09-09T09:43:00;39.00;23.10
49385;DHT22;36795;45.028;38.968;2022-09-09T09:45:46;38.90;22.90
49385;DHT22;36795;45.028;38.968;2022-09-09T09:48:34;38.90;22.70
49385;DHT22;36795;45.028;38.968;2022-09-09T09:51:22;39.50;22.60
49385;DHT22;36795;45.028;38.968;2022-09-09T09:54:15;40.00;22.30
49385;DHT22;36795;45.028;38.968;2022-09-09T09:57:26;40.40;22.20
49385;DHT22;36795;45.028;38.968;2022-09-09T10:00:19;40.70;21.90
49385;DHT22;36795;45.028;38.968;2022-09-09T10:03:26;41.40;21.80
49385;DHT22;36795;45.028;38.968;2022-09-09T10:06:13;41.60;21.60
49385;DHT22;36795;45.028;38.968;2022-09-09T10:08:59;41.20;21.90
49385;DHT22;36795;45.028;38.968;2022-09-09T10:11:49;40.80;22.00
49385;DHT22;36795;45.028;38.968;2022-09-09T10:15:05;40.20;22.20
49385;DHT22;36795;45.028;38.968;2022-09-09T10:18:04;38.90;22.60
49385;DHT22;36795;45.028;38.968;2022-09-09T10:21:36;37.10;23.10
49385;DHT22;36795;45.028;38.968;2022-09-09T10:24:44;35.70;24.00
49385;DHT22;36795;45.028;38.968;2022-09-09T10:33:16;32.20;26.00
49385;DHT22;36795;45.028;38.968;2022-09-09T10:36:20;31.90;26.10
49385;DHT22;36795;45.028;38.968;2022-09-09T10:39:16;32.30;26.30
49385;DHT22;36795;45.028;38.968;2022-09-09T10:42:09;33.10;25.80
49385;DHT22;36795;45.028;38.968;2022-09-09T10:45:14;33.70;25.40
49385;DHT22;36795;45.028;38.968;2022-09-09T10:48:30;33.90;25.40
49385;DHT22;36795;45.028;38.968;2022-09-09T11:00:24;33.90;25.80
49385;DHT22;36795;45.028;38.968;2022-09-09T11:03:23;34.70;25.40
49385;DHT22;36795;45.028;38.968;2022-09-09T11:06:19;36.30;24.50
49385;DHT22;36795;45.028;38.968;2022-09-09T11:09:08;37.60;23.90
49385;DHT22;36795;45.028;38.968;2022-09-09T11:12:01;39.30;23.30
49385;DHT22;36795;45.028;38.968;2022-09-09T11:15:07;39.90;22.90
49385;DHT22;36795;45.028;38.968;2022-09-09T11:18:03;40.40;22.70
49385;DHT22;36795;45.028;38.968;2022-09-09T11:20:55;40.80;22.70
49385;DHT22;36795;45.028;38.968;2022-09-09T11:23:46;41.30;22.70
49385;DHT22;36795;45.028;38.968;2022-09-09T11:26:41;42.10;22.30
49385;DHT22;36795;45.028;38.968;2022-09-09T11:39:33;44.50;21.70
49385;DHT22;36795;45.028;38.968;2022-09-09T11:42:24;44.80;21.80
49385;DHT22;36795;45.028;38.968;2022-09-09T11:48:21;45.10;21.40
49385;DHT22;36795;45.028;38.968;2022-09-09T11:51:10;45.30;21.40
49385;DHT22;36795;45.028;38.968;2022-09-09T11:54:30;45.10;21.30
49385;DHT22;36795;45.028;38.968;2022-09-09T11:57:33;44.60;21.40
49385;DHT22;36795;45.028;38.968;2022-09-09T12:03:48;44.60;21.40
49385;DHT22;36795;45.028;38.968;2022-09-09T12:06:49;44.90;21.20
49385;DHT22;36795;45.028;38.968;2022-09-09T12:10:19;45.20;21.10
49385;DHT22;36795;45.028;38.968;2022-09-09T12:13:19;45.40;21.30
49385;DHT22;36795;45.028;38.968;2022-09-09T12:16:05;45.10;21.30
49385;DHT22;36795;45.028;38.968;2022-09-09T12:19:18;44.70;21.30
49385;DHT22;36795;45.028;38.968;2022-09-09T12:22:14;44.10;21.40
49385;DHT22;36795;45.028;38.968;2022-09-09T12:40:37;35.50;24.50
49385;DHT22;36795;45.028;38.968;2022-09-09T12:43:28;35.00;24.70
49385;DHT22;36795;45.028;38.968;2022-09-09T12:46:43;34.60;24.80
49385;DHT22;36795;45.028;38.968;2022-09-09T12:49:39;34.30;25.20
49385;DHT22;36795;45.028;38.968;2022-09-09T12:52:34;33.80;25.40
49385;DHT22;36795;45.028;38.968;2022-09-09T12:55:24;33.70;25.30
49385;DHT22;36795;45.028;38.968;2022-09-09T12:58:13;33.40;25.60
49385;DHT22;36795;45.028;38.968;2022-09-09T13:01:04;33.40;25.60
49385;DHT22;36795;45.028;38.968;2022-09-09T13:03:51;33.40;25.70
49385;DHT22;36795;45.028;38.968;2022-09-09T13:06:38;33.10;25.70
49385;DHT22;36795;45.028;38.968;2022-09-09T13:09:24;32.60;25.80
49385;DHT22;36795;45.028;38.968;2022-09-09T13:12:16;31.90;26.10
49385;DHT22;36795;45.028;38.968;2022-09-09T13:15:04;31.60;26.50
49385;DHT22;36795;45.028;38.968;2022-09-09T13:18:04;31.80;26.50
49385;DHT22;36795;45.028;38.968;2022-09-09T13:20:52;32.50;26.20
49385;DHT22;36795;45.028;38.968;2022-09-09T13:23:38;33.40;25.70
49385;DHT22;36795;45.028;38.968;2022-09-09T13:26:26;34.30;25.10
49385;DHT22;36795;45.028;38.968;2022-09-09T13:29:19;35.00;24.80
49385;DHT22;36795;45.028;38.968;2022-09-09T13:32:18;35.20;24.60
49385;DHT22;36795;45.028;38.968;2022-09-09T13:35:22;35.50;24.40
49385;DHT22;36795;45.028;38.968;2022-09-09T13:38:09;35.80;24.40
49385;DHT22;36795;45.028;38.968;2022-09-09T13:41:00;36.10;24.20
49385;DHT22;36795;45.028;38.968;2022-09-09T13:43:51;36.00;24.10
49385;DHT22;36795;45.028;38.968;2022-09-09T13:46:39;35.90;24.10
49385;DHT22;36795;45.028;38.968;2022-09-09T13:49:29;35.80;24.10
49385;DHT22;36795;45.028;38.968;2022-09-09T13:52:17;35.90;24.00
49385;DHT22;36795;45.028;38.968;2022-09-09T13:55:05;36.00;24.00
49385;DHT22;36795;45.028;38.968;2022-09-09T13:57:56;36.30;23.80
49385;DHT22;36795;45.028;38.968;2022-09-09T14:00:42;36.20;23.70
49385;DHT22;36795;45.028;38.968;2022-09-09T14:03:30;35.80;23.80
49385;DHT22;36795;45.028;38.968;2022-09-09T14:06:16;35.00;24.10
49385;DHT22;36795;45.028;38.968;2022-09-09T14:09:05;34.30;24.50
49385;DHT22;36795;45.028;38.968;2022-09-09T14:11:52;34.10;24.70
49385;DHT22;36795;45.028;38.968;2022-09-09T14:14:38;33.90;24.90
49385;DHT22;36795;45.028;38.968;2022-09-09T14:17:24;33.70;25.10
49385;DHT22;36795;45.028;38.968;2022-09-09T14:20:11;33.80;25.10
49385;DHT22;36795;45.028;38.968;2022-09-09T14:23:00;33.80;25.10
49385;DHT22;36795;45.028;38.968;2022-09-09T14:25:46;34.00;25.10
49385;DHT22;36795;45.028;38.968;2022-09-09T14:28:32;34.20;25.00
49385;DHT22;36795;45.028;38.968;2022-09-09T14:31:19;34.50;24.80
49385;DHT22;36795;45.028;38.968;2022-09-09T14:34:06;34.50;24.80
49385;DHT22;36795;45.028;38.968;2022-09-09T14:36:52;34.50;25.00
49385;DHT22;36795;45.028;38.968;2022-09-09T14:39:38;34.40;24.90
49385;DHT22;36795;45.028;38.968;2022-09-09T14:42:25;34.20;25.00
49385;DHT22;36795;45.028;38.968;2022-09-09T14:45:12;34.00;25.20
49385;DHT22;36795;45.028;38.968;2022-09-09T14:47:59;33.50;25.50
49385;DHT22;36795;45.028;38.968;2022-09-09T14:50:46;32.60;25.90
49385;DHT22;36795;45.028;38.968;2022-09-09T14:53:32;31.60;26.30
49385;DHT22;36795;45.028;38.968;2022-09-09T14:56:21;30.70;26.90
49385;DHT22;36795;45.028;38.968;2022-09-09T14:59:08;29.90;27.30
49385;DHT22;36795;45.028;38.968;2022-09-09T15:01:54;29.40;27.80
49385;DHT22;36795;45.028;38.968;2022-09-09T15:04:40;28.90;28.10
49385;DHT22;36795;45.028;38.968;2022-09-09T15:07:27;28.50;28.50
49385;DHT22;36795;45.028;38.968;2022-09-09T15:10:14;28.20;28.70
49385;DHT22;36795;45.028;38.968;2022-09-09T15:13:00;27.90;28.90
49385;DHT22;36795;45.028;38.968;2022-09-09T15:15:46;27.70;29.20
49385;DHT22;36795;45.028;38.968;2022-09-09T15:18:33;27.40;29.40
49385;DHT22;36795;45.028;38.968;2022-09-09T15:21:21;27.20;29.90
49385;DHT22;36795;45.028;38.968;2022-09-09T15:24:07;27.00;30.00
49385;DHT22;36795;45.028;38.968;2022-09-09T15:26:54;26.90;30.10
49385;DHT22;36795;45.028;38.968;2022-09-09T15:29:40;26.80;30.20
49385;DHT22;36795;45.028;38.968;2022-09-09T15:32:27;26.60;30.30
49385;DHT22;36795;45.028;38.968;2022-09-09T15:35:14;26.50;30.60
49385;DHT22;36795;45.028;38.968;2022-09-09T15:38:02;26.40;30.80
49385;DHT22;36795;45.028;38.968;2022-09-09T15:40:54;26.30;31.10
49385;DHT22;36795;45.028;38.968;2022-09-09T15:43:49;26.10;31.60
49385;DHT22;36795;45.028;38.968;2022-09-09T15:46:40;26.00;31.70
49385;DHT22;36795;45.028;38.968;2022-09-09T15:49:26;25.90;31.80
49385;DHT22;36795;45.028;38.968;2022-09-09T15:52:12;25.80;32.00
49385;DHT22;36795;45.028;38.968;2022-09-09T15:54:58;25.70;32.30
49385;DHT22;36795;45.028;38.968;2022-09-09T15:57:46;25.60;32.50
49385;DHT22;36795;45.028;38.968;2022-09-09T16:00:32;25.50;32.80
49385;DHT22;36795;45.028;38.968;2022-09-09T16:03:19;25.40;33.20
49385;DHT22;36795;45.028;38.968;2022-09-09T16:06:06;25.30;33.40
49385;DHT22;36795;45.028;38.968;2022-09-09T16:08:54;25.20;33.70
49385;DHT22;36795;45.028;38.968;2022-09-09T16:11:40;25.10;33.90
49385;DHT22;36795;45.028;38.968;2022-09-09T16:14:27;25.00;34.00
49385;DHT22;36795;45.028;38.968;2022-09-09T16:17:13;24.90;34.40
49385;DHT22;36795;45.028;38.968;2022-09-09T16:20:01;24.90;34.50
49385;DHT22;36795;45.028;38.968;2022-09-09T16:22:47;24.80;34.90
49385;DHT22;36795;45.028;38.968;2022-09-09T16:25:33;24.70;35.10
49385;DHT22;36795;45.028;38.968;2022-09-09T16:28:19;24.60;35.40
49385;DHT22;36795;45.028;38.968;2022-09-09T16:31:11;24.50;35.70
49385;DHT22;36795;45.028;38.968;2022-09-09T16:33:59;24.40;35.90
49385;DHT22;36795;45.028;38.968;2022-09-09T16:36:47;24.30;36.00
49385;DHT22;36795;45.028;38.968;2022-09-09T16:39:33;24.20;36.20
49385;DHT22;36795;45.028;38.968;2022-09-09T16:42:20;24.20;36.30
49385;DHT22;36795;45.028;38.968;2022-09-09T16:45:05;24.10;36.50
49385;DHT22;36795;45.028;38.968;2022-09-09T16:47:53;24.00;36.70
49385;DHT22;36795;45.028;38.968;2022-09-09T16:50:39;24.00;36.90
49385;DHT22;36795;45.028;38.968;2022-09-09T16:53:25;23.80;37.10
49385;DHT22;36795;45.028;38.968;2022-09-09T16:56:15;23.80;37.50
49385;DHT22;36795;45.028;38.968;2022-09-09T16:59:05;23.70;37.70
49385;DHT22;36795;45.028;38.968;2022-09-09T17:01:51;23.70;38.00
49385;DHT22;36795;45.028;38.968;2022-09-09T17:04:38;23.60;38.20
49385;DHT22;36795;45.028;38.968;2022-09-09T17:07:33;23.50;39.00
49385;DHT22;36795;45.028;38.968;2022-09-09T17:10:19;23.50;38.60
49385;DHT22;36795;45.028;38.968;2022-09-09T17:13:09;23.40;38.70
49385;DHT22;36795;45.028;38.968;2022-09-09T17:15:59;23.40;38.80
49385;DHT22;36795;45.028;38.968;2022-09-09T17:18:53;23.40;38.90
49385;DHT22;36795;45.028;38.968;2022-09-09T17:21:40;23.30;38.90
49385;DHT22;36795;45.028;38.968;2022-09-09T17:24:27;23.30;38.80
49385;DHT22;36795;45.028;38.968;2022-09-09T17:27:14;23.30;38.90
49385;DHT22;36795;45.028;38.968;2022-09-09T17:30:00;23.30;38.80
49385;DHT22;36795;45.028;38.968;2022-09-09T17:32:48;23.20;38.90
49385;DHT22;36795;45.028;38.968;2022-09-09T17:35:34;23.20;38.80
49385;DHT22;36795;45.028;38.968;2022-09-09T17:38:21;23.10;38.90
49385;DHT22;36795;45.028;38.968;2022-09-09T17:41:23;23.10;39.10
49385;DHT22;36795;45.028;38.968;2022-09-09T17:44:09;23.10;39.10
49385;DHT22;36795;45.028;38.968;2022-09-09T17:46:57;23.00;39.10
49385;DHT22;36795;45.028;38.968;2022-09-09T17:49:44;23.00;39.30
49385;DHT22;36795;45.028;38.968;2022-09-09T17:52:29;22.90;39.50
49385;DHT22;36795;45.028;38.968;2022-09-09T17:55:17;22.90;39.60
49385;DHT22;36795;45.028;38.968;2022-09-09T17:58:03;22.90;39.70
49385;DHT22;36795;45.028;38.968;2022-09-09T18:00:49;22.90;39.80
49385;DHT22;36795;45.028;38.968;2022-09-09T18:03:37;22.90;39.90
49385;DHT22;36795;45.028;38.968;2022-09-09T18:06:26;22.90;39.90
49385;DHT22;36795;45.028;38.968;2022-09-09T18:09:16;22.90;40.20
49385;DHT22;36795;45.028;38.968;2022-09-09T18:12:02;22.90;40.20
49385;DHT22;36795;45.028;38.968;2022-09-09T18:14:49;22.90;40.30
49385;DHT22;36795;45.028;38.968;2022-09-09T18:17:35;22.90;40.30
49385;DHT22;36795;45.028;38.968;2022-09-09T18:20:21;22.90;40.30
49385;DHT22;36795;45.028;38.968;2022-09-09T18:23:08;22.80;40.30
49385;DHT22;36795;45.028;38.968;2022-09-09T18:25:54;22.80;40.40
49385;DHT22;36795;45.028;38.968;2022-09-09T18:28:42;22.80;40.50
49385;DHT22;36795;45.028;38.968;2022-09-09T18:31:32;22.80;40.60
49385;DHT22;36795;45.028;38.968;2022-09-09T18:34:19;22.70;40.50
49385;DHT22;36795;45.028;38.968;2022-09-09T18:37:07;22.80;40.60
49385;DHT22;36795;45.028;38.968;2022-09-09T18:39:54;22.80;40.50
49385;DHT22;36795;45.028;38.968;2022-09-09T18:42:41;22.80;40.40
49385;DHT22;36795;45.028;38.968;2022-09-09T18:45:27;22.70;40.40
49385;DHT22;36795;45.028;38.968;2022-09-09T18:48:14;22.70;40.40
49385;DHT22;36795;45.028;38.968;2022-09-09T18:51:07;22.70;40.50
49385;DHT22;36795;45.028;38.968;2022-09-09T18:53:56;22.60;40.70
49385;DHT22;36795;45.028;38.968;2022-09-09T18:56:43;22.60;40.90